Time;durP1;ratioP1;P1;durP2;ratioP2;P2;SDS_P1;SDS_P2;PMS_P1;PMS_P2;Temp;Humidity;BMP_temperature;BMP_pressure;BME280_temperature;BME280_humidity;BME280_pressure;Samples;Min_cycle;Max_cycle;Signal;HPM_P1;HPM_P2
2023/03/27 00:00:59;;;;;;;7.50;5.55;;;20.60;99.90;;;;;;5025072;28;20033;-62
2023/03/27 00:03:28;;;;;;;9.13;6.07;;;20.60;99.90;;;;;;5023996;28;20033;-63
2023/03/27 00:06:03;;;;;;;8.90;6.07;;;20.70;99.90;;;;;;5031977;28;20027;-63
2023/03/27 00:08:31;;;;;;;7.25;5.82;;;20.80;99.90;;;;;;5038491;28;20080;-63
2023/03/27 00:11:00;;;;;;;9.73;6.10;;;20.80;99.90;;;;;;5026071;28;20428;-63
2023/03/27 00:13:28;;;;;;;7.78;5.72;;;20.80;99.90;;;;;;5027227;28;20163;-64
2023/03/27 00:15:57;;;;;;;8.70;6.22;;;20.90;99.90;;;;;;5029801;28;20458;-62
2023/03/27 00:18:25;;;;;;;9.35;5.88;;;21.00;99.90;;;;;;5031369;28;20115;-60
2023/03/27 00:20:53;;;;;;;8.70;5.90;;;21.00;99.90;;;;;;5031560;28;20061;-61
2023/03/27 00:23:21;;;;;;;7.97;5.78;;;21.00;99.90;;;;;;5027766;28;20028;-61
2023/03/27 00:25:51;;;;;;;9.70;6.18;;;21.00;99.90;;;;;;5032361;28;20029;-62
2023/03/27 00:28:19;;;;;;;6.43;5.72;;;21.20;99.90;;;;;;5029921;28;20021;-62
2023/03/27 00:30:48;;;;;;;8.35;6.13;;;21.30;99.90;;;;;;5040913;28;20070;-62
2023/03/27 00:33:15;;;;;;;7.43;5.57;;;21.40;99.90;;;;;;5030210;28;20470;-64
2023/03/27 00:35:48;;;;;;;5.65;4.25;;;21.50;99.90;;;;;;5036050;28;20043;-63
2023/03/27 00:38:17;;;;;;;7.20;4.80;;;21.60;99.90;;;;;;5026413;28;20029;-64
2023/03/27 00:40:46;;;;;;;5.32;4.20;;;21.60;99.90;;;;;;5024797;28;20029;-63
2023/03/27 00:43:19;;;;;;;5.80;3.45;;;21.70;99.90;;;;;;5025623;28;20045;-64
2023/03/27 00:45:49;;;;;;;4.90;3.60;;;21.70;99.90;;;;;;5026047;28;21094;-64
2023/03/27 00:48:19;;;;;;;4.63;2.95;;;21.70;99.90;;;;;;5035359;28;20474;-64
2023/03/27 00:50:47;;;;;;;6.15;3.70;;;21.70;99.90;;;;;;5027587;28;20112;-63
2023/03/27 00:53:25;;;;;;;4.60;3.25;;;21.70;99.90;;;;;;5023725;28;20045;-63
2023/03/27 00:55:57;;;;;;;4.43;3.85;;;21.80;99.90;;;;;;5036211;28;20093;-63
2023/03/27 00:58:42;;;;;;;3.83;2.58;;;21.80;99.90;;;;;;5033779;28;20540;-63
2023/03/27 01:01:13;;;;;;;7.85;4.25;;;22.00;99.90;;;;;;5025790;28;20422;-63
2023/03/27 01:03:44;;;;;;;4.03;2.67;;;22.00;99.90;;;;;;5024904;28;20025;-63
2023/03/27 01:06:15;;;;;;;7.85;3.20;;;22.10;99.90;;;;;;5031149;28;20037;-63
2023/03/27 01:08:45;;;;;;;4.97;3.55;;;22.20;99.90;;;;;;5023588;28;20388;-63
2023/03/27 01:11:33;;;;;;;4.85;3.38;;;22.30;99.90;;;;;;5025561;28;20115;-63
2023/03/27 01:14:40;;;;;;;3.67;2.78;;;22.40;99.90;;;;;;5025192;28;20025;-63
2023/03/27 01:17:28;;;;;;;5.28;2.95;;;22.60;99.90;;;;;;4998749;28;20077;-63
2023/03/27 01:20:31;;;;;;;4.28;3.00;;;22.70;99.90;;;;;;5028462;28;20377;-63
2023/03/27 01:23:14;;;;;;;3.55;2.50;;;22.90;99.90;;;;;;5025706;28;20098;-64
2023/03/27 01:26:21;;;;;;;5.45;2.78;;;23.00;99.90;;;;;;5024164;28;20489;-64
2023/03/27 01:29:18;;;;;;;4.40;2.22;;;23.20;99.90;;;;;;5031657;28;20040;-62
2023/03/27 01:32:05;;;;;;;6.25;2.55;;;23.30;99.90;;;;;;5025017;28;20090;-63
2023/03/27 01:34:41;;;;;;;2.83;1.88;;;23.40;99.90;;;;;;5034395;28;20514;-63
2023/03/27 01:37:12;;;;;;;3.25;2.28;;;23.60;99.90;;;;;;5030733;28;20045;-64
2023/03/27 01:39:58;;;;;;;5.38;2.80;;;23.70;99.90;;;;;;5037177;28;20021;-63
2023/03/27 01:42:59;;;;;;;2.78;2.13;;;23.80;99.90;;;;;;5033357;28;20090;-64
2023/03/27 01:45:47;;;;;;;4.68;2.28;;;23.90;99.90;;;;;;5049007;28;20022;-63
2023/03/27 01:48:40;;;;;;;6.53;3.05;;;24.00;99.90;;;;;;5039796;28;20037;-63
2023/03/27 01:51:23;;;;;;;3.72;2.40;;;24.00;99.90;;;;;;5022042;28;20045;-62
2023/03/27 01:54:00;;;;;;;3.72;2.28;;;24.20;99.90;;;;;;5026223;28;20028;-64
2023/03/27 01:56:39;;;;;;;5.53;3.00;;;24.30;99.90;;;;;;5030482;28;20065;-65
2023/03/27 01:59:27;;;;;;;4.40;2.20;;;24.40;99.90;;;;;;5030310;28;20564;-64
2023/03/27 02:02:02;;;;;;;4.40;2.75;;;24.50;99.90;;;;;;5032558;28;20017;-64
2023/03/27 02:04:56;;;;;;;3.78;2.25;;;24.50;99.90;;;;;;5034232;28;20033;-64
2023/03/27 02:07:38;;;;;;;5.82;2.40;;;24.80;99.90;;;;;;5033157;28;20041;-64
2023/03/27 02:10:11;;;;;;;3.22;1.90;;;24.90;99.90;;;;;;5030804;28;20040;-64
2023/03/27 02:12:44;;;;;;;3.60;2.30;;;25.10;99.90;;;;;;5026155;28;20033;-63
2023/03/27 02:15:17;;;;;;;3.13;2.00;;;25.20;99.90;;;;;;5024856;28;20124;-63
2023/03/27 02:18:03;;;;;;;5.45;2.30;;;25.30;99.90;;;;;;5020614;28;20060;-63
2023/03/27 02:20:32;;;;;;;3.45;2.42;;;25.40;99.90;;;;;;5022738;28;20382;-63
2023/03/27 02:23:00;;;;;;;3.40;2.20;;;25.40;99.90;;;;;;5030165;28;20030;-63
2023/03/27 02:25:35;;;;;;;5.00;2.72;;;25.40;99.90;;;;;;5045315;28;20385;-64
2023/03/27 02:28:28;;;;;;;7.40;2.67;;;25.40;99.90;;;;;;5036399;28;20032;-63
2023/03/27 02:31:07;;;;;;;3.35;2.05;;;25.30;99.90;;;;;;5027746;28;20029;-63
2023/03/27 02:34:11;;;;;;;2.92;2.20;;;25.10;99.90;;;;;;5032851;28;20171;-64
2023/03/27 02:37:14;;;;;;;4.28;2.20;;;25.00;99.90;;;;;;5028040;28;20045;-63
2023/03/27 02:40:12;;;;;;;5.15;2.53;;;24.70;99.90;;;;;;5025485;28;20029;-63
2023/03/27 02:43:10;;;;;;;2.88;2.25;;;24.60;99.90;;;;;;5036360;28;20514;-63
2023/03/27 02:45:52;;;;;;;4.85;2.60;;;24.50;99.90;;;;;;5030538;28;20031;-64
2023/03/27 02:48:26;;;;;;;3.15;2.30;;;24.40;99.90;;;;;;5032481;28;20025;-64
2023/03/27 02:51:11;;;;;;;3.58;2.30;;;24.30;99.90;;;;;;5041587;28;20029;-65
2023/03/27 02:53:48;;;;;;;3.97;2.33;;;24.20;99.90;;;;;;5034186;28;20032;-64
2023/03/27 02:56:19;;;;;;;4.22;2.33;;;24.10;99.90;;;;;;5031429;28;20048;-65
2023/03/27 02:59:09;;;;;;;3.10;2.50;;;24.00;99.90;;;;;;5030893;28;20422;-64
2023/03/27 03:01:39;;;;;;;3.40;2.35;;;24.00;99.90;;;;;;5036799;28;20554;-65
2023/03/27 03:04:19;;;;;;;4.00;2.20;;;23.90;99.90;;;;;;5034488;28;20032;-65
2023/03/27 03:06:49;;;;;;;3.17;2.53;;;23.90;99.90;;;;;;5031853;28;20502;-65
2023/03/27 03:09:17;;;;;;;3.17;2.60;;;24.00;99.90;;;;;;5036536;28;20052;-65
2023/03/27 03:11:52;;;;;;;4.07;2.47;;;24.00;99.90;;;;;;5031939;28;20037;-65
2023/03/27 03:14:32;;;;;;;4.65;2.45;;;24.00;99.90;;;;;;5033568;28;20029;-65
2023/03/27 03:17:00;;;;;;;3.75;2.50;;;23.90;99.90;;;;;;5028962;28;20073;-65
2023/03/27 03:19:28;;;;;;;5.07;2.60;;;23.90;99.90;;;;;;5027317;28;21628;-65
2023/03/27 03:21:55;;;;;;;4.68;2.75;;;23.90;99.90;;;;;;5036448;28;20029;-65
2023/03/27 03:24:23;;;;;;;3.45;2.70;;;23.90;99.90;;;;;;5026974;28;20025;-64
2023/03/27 03:26:50;;;;;;;3.25;2.60;;;24.00;99.90;;;;;;5027099;28;20509;-66
2023/03/27 03:29:18;;;;;;;3.33;2.53;;;24.00;99.90;;;;;;5029576;28;20500;-64
2023/03/27 03:31:47;;;;;;;3.88;2.30;;;23.90;99.90;;;;;;5031704;28;20128;-64
2023/03/27 03:34:17;;;;;;;3.78;2.58;;;24.00;99.90;;;;;;5026493;28;20091;-64
2023/03/27 03:36:48;;;;;;;4.18;2.40;;;24.00;99.90;;;;;;5025599;28;20406;-65
2023/03/27 03:39:17;;;;;;;5.05;2.80;;;24.00;99.90;;;;;;5027342;28;20075;-65
2023/03/27 03:41:44;;;;;;;4.32;2.50;;;24.10;99.90;;;;;;5029427;28;21516;-65
2023/03/27 03:44:11;;;;;;;3.88;2.70;;;24.20;99.90;;;;;;5029002;28;20025;-66
2023/03/27 03:46:39;;;;;;;3.58;2.25;;;24.20;99.90;;;;;;5026406;28;20569;-66
2023/03/27 03:49:07;;;;;;;4.75;2.53;;;24.20;99.90;;;;;;5027690;28;20079;-65
2023/03/27 03:51:36;;;;;;;4.38;2.65;;;24.20;99.90;;;;;;5027226;28;20121;-65
2023/03/27 03:54:05;;;;;;;4.13;2.60;;;24.20;99.90;;;;;;5025785;28;20021;-66
2023/03/27 03:56:33;;;;;;;3.50;2.45;;;24.20;99.90;;;;;;5028432;28;20037;-65
2023/03/27 03:59:00;;;;;;;3.50;2.30;;;24.10;99.90;;;;;;5029441;28;20037;-65
2023/03/27 04:01:28;;;;;;;5.32;2.58;;;24.00;99.90;;;;;;5030973;28;20018;-62
2023/03/27 04:03:56;;;;;;;3.00;2.28;;;23.90;99.90;;;;;;5041788;28;20033;-64
2023/03/27 04:06:29;;;;;;;3.92;2.40;;;23.90;99.90;;;;;;5029216;28;20025;-64
2023/03/27 04:08:57;;;;;;;5.65;2.67;;;23.80;99.90;;;;;;5025242;28;20061;-64
2023/03/27 04:11:25;;;;;;;3.83;2.20;;;23.80;99.90;;;;;;5025209;28;20111;-64
2023/03/27 04:13:52;;;;;;;3.80;2.42;;;23.80;99.90;;;;;;5030885;28;20021;-64
2023/03/27 04:16:20;;;;;;;5.38;2.13;;;23.70;99.90;;;;;;5031903;28;20041;-64
2023/03/27 04:18:49;;;;;;;4.78;2.40;;;23.80;99.90;;;;;;5024087;28;20629;-63
2023/03/27 04:21:17;;;;;;;2.85;2.13;;;23.90;99.90;;;;;;5033387;28;20497;-64
2023/03/27 04:23:50;;;;;;;3.20;2.38;;;23.90;99.90;;;;;;5034567;28;20028;-64
2023/03/27 04:26:17;;;;;;;5.07;2.20;;;24.00;99.90;;;;;;5029855;28;20021;-64
2023/03/27 04:28:45;;;;;;;3.50;2.30;;;24.00;99.90;;;;;;5019004;28;20037;-63
2023/03/27 04:31:13;;;;;;;3.05;1.95;;;24.10;99.90;;;;;;5021964;28;20071;-63
2023/03/27 04:33:45;;;;;;;3.63;2.28;;;24.20;99.90;;;;;;5021708;28;20028;-63
2023/03/27 04:36:13;;;;;;;3.15;2.25;;;24.40;99.90;;;;;;5025167;28;20053;-63
2023/03/27 04:38:41;;;;;;;5.18;2.97;;;24.50;99.90;;;;;;5021378;28;20025;-64
2023/03/27 04:41:09;;;;;;;5.00;2.30;;;24.70;99.90;;;;;;5031934;28;20029;-63
2023/03/27 04:43:38;;;;;;;4.20;1.90;;;24.80;99.90;;;;;;5026403;28;20024;-63
2023/03/27 04:46:07;;;;;;;5.10;2.42;;;25.00;99.90;;;;;;5030078;28;20482;-64
2023/03/27 04:48:37;;;;;;;5.55;2.38;;;25.10;99.90;;;;;;5029510;28;20541;-64
2023/03/27 04:51:08;;;;;;;2.67;1.80;;;25.30;99.90;;;;;;5042598;28;20409;-63
2023/03/27 04:53:36;;;;;;;4.32;2.20;;;25.40;99.90;;;;;;5030570;28;20083;-63
2023/03/27 04:56:05;;;;;;;2.90;1.95;;;25.60;99.90;;;;;;5042967;28;20036;-63
2023/03/27 04:58:32;;;;;;;3.75;1.90;;;25.70;99.90;;;;;;5026851;28;20414;-63
2023/03/27 05:01:01;;;;;;;6.88;2.65;;;25.90;99.90;;;;;;5022314;28;21385;-64
2023/03/27 05:03:28;;;;;;;3.08;2.13;;;26.00;99.90;;;;;;5028825;28;20051;-65
2023/03/27 05:05:57;;;;;;;3.05;2.17;;;26.00;99.90;;;;;;5028815;28;20124;-64
2023/03/27 05:08:25;;;;;;;3.40;1.88;;;26.10;99.90;;;;;;5022367;28;20069;-64
2023/03/27 05:10:52;;;;;;;4.63;1.77;;;26.10;99.90;;;;;;5034163;28;20036;-64
2023/03/27 05:13:20;;;;;;;5.40;1.80;;;26.10;99.90;;;;;;5024279;28;20030;-64
2023/03/27 05:15:47;;;;;;;5.32;2.30;;;26.20;99.90;;;;;;5023255;28;20582;-64
2023/03/27 05:18:14;;;;;;;3.92;1.88;;;26.20;99.90;;;;;;5025083;28;20053;-64
2023/03/27 05:20:47;;;;;;;4.50;1.70;;;26.30;99.90;;;;;;5030247;28;20056;-65
2023/03/27 05:23:15;;;;;;;2.92;1.70;;;26.20;99.90;;;;;;5027028;28;20022;-64
2023/03/27 05:25:44;;;;;;;3.25;1.90;;;26.20;99.90;;;;;;5026510;28;20091;-64
2023/03/27 05:28:11;;;;;;;2.05;1.52;;;26.20;99.90;;;;;;5027877;28;20030;-64
2023/03/27 05:30:41;;;;;;;3.10;1.90;;;26.20;99.90;;;;;;5025270;28;20025;-64
2023/03/27 05:33:08;;;;;;;3.88;2.08;;;26.10;99.90;;;;;;5040663;28;20059;-64
2023/03/27 05:35:36;;;;;;;4.03;1.95;;;26.10;99.90;;;;;;5024924;28;20436;-64
2023/03/27 05:38:05;;;;;;;4.93;2.05;;;26.10;99.90;;;;;;5030301;28;20017;-64
2023/03/27 05:40:33;;;;;;;6.95;2.00;;;26.10;99.90;;;;;;5022901;28;20032;-64
2023/03/27 05:43:01;;;;;;;6.03;2.10;;;26.20;99.90;;;;;;5021780;28;20378;-64
2023/03/27 05:45:28;;;;;;;3.85;2.22;;;26.20;99.90;;;;;;5043625;28;20028;-64
2023/03/27 05:47:58;;;;;;;4.43;2.63;;;26.20;99.90;;;;;;5029538;28;20037;-64
2023/03/27 05:50:34;;;;;;;5.22;2.28;;;26.20;99.90;;;;;;5038701;28;20021;-64
2023/03/27 05:53:08;;;;;;;3.42;1.75;;;26.20;99.90;;;;;;5025999;28;20025;-64
2023/03/27 05:55:37;;;;;;;3.95;1.75;;;26.30;99.90;;;;;;5031076;28;20413;-62
2023/03/27 05:58:08;;;;;;;3.30;1.77;;;26.20;99.90;;;;;;5038751;28;20211;-63
2023/03/27 06:00:37;;;;;;;3.53;1.65;;;26.20;99.90;;;;;;5024984;28;20498;-63
2023/03/27 06:03:05;;;;;;;4.20;1.77;;;26.10;99.90;;;;;;5020547;28;20489;-63
2023/03/27 06:05:33;;;;;;;3.28;1.52;;;26.10;99.90;;;;;;5022602;28;20148;-64
2023/03/27 06:08:01;;;;;;;3.50;1.73;;;26.00;99.90;;;;;;5021443;28;20076;-64
2023/03/27 06:10:29;;;;;;;2.95;1.95;;;25.90;99.90;;;;;;5023977;28;20029;-64
2023/03/27 06:13:14;;;;;;;3.95;2.40;;;25.80;99.90;;;;;;5025032;28;20083;-64
2023/03/27 06:15:43;;;;;;;3.08;1.83;;;25.70;99.90;;;;;;5026026;28;20033;-64
2023/03/27 06:18:11;;;;;;;4.13;2.05;;;25.50;99.90;;;;;;5028151;28;20049;-64
2023/03/27 06:20:39;;;;;;;3.75;1.63;;;25.30;99.90;;;;;;5028471;28;20043;-64
2023/03/27 06:23:08;;;;;;;4.72;1.88;;;25.20;99.90;;;;;;5031151;28;20117;-64
2023/03/27 06:25:38;;;;;;;5.78;2.60;;;25.10;99.90;;;;;;5025510;28;20506;-64
2023/03/27 06:28:08;;;;;;;11.75;2.95;;;25.00;99.90;;;;;;5031663;28;20095;-64
2023/03/27 06:30:37;;;;;;;5.43;2.10;;;24.90;99.90;;;;;;5030517;28;20438;-64
2023/03/27 06:33:06;;;;;;;4.18;2.33;;;24.80;99.90;;;;;;5026634;28;20049;-63
2023/03/27 06:35:34;;;;;;;5.15;2.13;;;24.70;99.90;;;;;;5028827;28;20036;-64
2023/03/27 06:38:02;;;;;;;3.80;1.80;;;24.70;99.90;;;;;;5027281;28;20040;-64
2023/03/27 06:40:31;;;;;;;2.60;1.70;;;24.60;99.90;;;;;;5028727;28;20750;-64
2023/03/27 06:43:01;;;;;;;4.68;1.90;;;24.60;99.90;;;;;;5023980;28;20029;-64
2023/03/27 06:45:31;;;;;;;5.25;1.60;;;24.60;99.90;;;;;;5025261;28;20706;-67
2023/03/27 06:48:04;;;;;;;3.75;1.58;;;24.50;99.90;;;;;;5018064;28;20029;-65
2023/03/27 06:50:32;;;;;;;3.00;1.55;;;24.50;99.90;;;;;;5023641;28;20567;-66
2023/03/27 06:53:00;;;;;;;3.28;1.50;;;24.50;99.90;;;;;;5028730;28;20040;-68
2023/03/27 06:55:30;;;;;;;2.78;2.05;;;24.50;99.90;;;;;;5030992;28;20045;-66
2023/03/27 06:58:00;;;;;;;2.90;1.85;;;24.50;99.90;;;;;;5033547;28;20047;-65
2023/03/27 07:00:34;;;;;;;5.10;2.22;;;24.50;99.90;;;;;;5026378;28;20042;-66
2023/03/27 07:03:08;;;;;;;3.33;2.03;;;24.50;99.90;;;;;;5023386;28;20072;-65
2023/03/27 07:05:36;;;;;;;;;;;24.50;99.90;;;;;;5029335;28;20056;-64
2023/03/27 07:08:06;;;;;;;4.38;2.47;;;24.40;99.90;;;;;;5030511;28;19924;-66
2023/03/27 07:10:34;;;;;;;3.30;2.30;;;24.30;99.90;;;;;;5028304;28;20498;-66
2023/03/27 07:13:01;;;;;;;4.88;2.00;;;24.20;99.90;;;;;;5028657;28;20380;-66
2023/03/27 07:15:29;;;;;;;2.15;1.50;;;24.10;99.90;;;;;;5029522;28;20494;-67
2023/03/27 07:18:06;;;;;;;2.85;1.70;;;24.00;99.90;;;;;;5029873;28;20045;-65
2023/03/27 07:20:39;;;;;;;4.43;1.67;;;23.90;99.90;;;;;;5025257;28;20032;-66
2023/03/27 07:23:07;;;;;;;2.77;1.80;;;23.80;99.90;;;;;;5027309;28;20029;-65
2023/03/27 07:25:38;;;;;;;2.97;1.83;;;23.70;99.90;;;;;;5031316;28;20553;-67
2023/03/27 07:28:08;;;;;;;3.88;1.67;;;23.70;99.90;;;;;;5032690;28;20026;-68
2023/03/27 07:30:37;;;;;;;4.38;1.92;;;23.60;99.90;;;;;;5027637;28;20037;-66
2023/03/27 07:33:08;;;;;;;3.03;1.80;;;23.60;99.90;;;;;;5024675;28;20022;-66
2023/03/27 07:35:41;;;;;;;4.18;2.30;;;23.50;99.90;;;;;;5030271;28;20062;-65
2023/03/27 07:38:10;;;;;;;4.43;1.70;;;23.40;99.90;;;;;;5032532;28;20029;-68
2023/03/27 07:40:38;;;;;;;4.72;2.50;;;23.40;99.90;;;;;;5032135;28;20508;-68
2023/03/27 07:43:06;;;;;;;3.40;2.00;;;23.30;99.90;;;;;;5031288;28;20025;-70
2023/03/27 07:45:34;;;;;;;2.63;1.52;;;23.40;99.90;;;;;;5027873;28;20120;-72
2023/03/27 07:48:10;;;;;;;3.60;2.15;;;23.30;99.90;;;;;;5030544;28;20448;-69
2023/03/27 07:50:38;;;;;;;2.40;1.90;;;23.30;99.90;;;;;;5027131;28;20032;-71
2023/03/27 07:53:05;;;;;;;2.78;1.83;;;23.20;99.90;;;;;;5031411;28;20026;-70
2023/03/27 07:55:36;;;;;;;5.93;1.88;;;23.20;99.90;;;;;;5027605;28;20045;-70
2023/03/27 07:58:05;;;;;;;4.10;1.85;;;23.10;99.90;;;;;;5029385;28;20541;-73
2023/03/27 08:00:34;;;;;;;2.78;1.70;;;22.90;99.90;;;;;;5037415;28;20021;-71
2023/03/27 08:03:10;;;;;;;2.60;1.73;;;22.90;99.90;;;;;;5025156;28;20573;-72
2023/03/27 08:05:38;;;;;;;3.40;1.70;;;22.80;99.90;;;;;;5019408;28;20040;-68
2023/03/27 08:08:05;;;;;;;3.92;2.17;;;22.70;99.90;;;;;;5019920;28;20045;-69
2023/03/27 08:10:33;;;;;;;2.85;2.00;;;22.50;99.90;;;;;;5028504;28;20386;-68
2023/03/27 08:13:00;;;;;;;3.33;2.15;;;22.50;99.90;;;;;;5024233;28;20461;-69
2023/03/27 08:15:28;;;;;;;3.72;2.53;;;22.40;99.90;;;;;;5035921;28;20075;-69
2023/03/27 08:17:58;;;;;;;5.05;2.25;;;22.30;99.90;;;;;;5029052;28;20025;-68
2023/03/27 08:20:25;;;;;;;5.32;2.20;;;22.30;99.90;;;;;;5024905;28;20021;-70
2023/03/27 08:22:53;;;;;;;3.10;2.47;;;22.20;99.90;;;;;;5023627;28;20021;-69
2023/03/27 08:25:25;;;;;;;4.80;2.22;;;22.10;99.90;;;;;;5025834;28;20021;-72
2023/03/27 08:27:52;;;;;;;3.20;2.00;;;22.00;99.90;;;;;;5029550;28;20029;-72
2023/03/27 08:30:22;;;;;;;3.50;2.08;;;21.90;99.90;;;;;;5020185;28;20389;-71
2023/03/27 08:32:50;;;;;;;3.17;2.08;;;21.90;99.90;;;;;;5036589;28;20066;-72
2023/03/27 08:35:18;;;;;;;3.10;2.50;;;21.80;99.90;;;;;;5017478;28;20562;-73
2023/03/27 08:37:45;;;;;;;2.72;1.92;;;21.70;99.90;;;;;;5025467;28;20025;-69
2023/03/27 08:40:29;;;;;;;4.00;2.38;;;21.60;99.90;;;;;;5022638;28;20026;-69
2023/03/27 08:43:13;;;;;;;6.05;3.60;;;21.60;99.90;;;;;;5025554;28;20025;-67
2023/03/27 08:45:52;;;;;;;4.43;3.10;;;21.50;99.90;;;;;;5022284;28;20029;-71
2023/03/27 08:48:44;;;;;;;4.03;2.85;;;21.50;99.90;;;;;;5020623;28;20018;-70
2023/03/27 08:51:31;;;;;;;6.53;3.25;;;21.50;99.90;;;;;;5020016;28;20816;-68
2023/03/27 08:54:43;;;;;;;6.80;3.30;;;21.50;99.90;;;;;;5022990;28;20033;-68
2023/03/27 08:57:30;;;;;;;4.88;2.72;;;21.50;99.90;;;;;;4966057;28;20492;-66
2023/03/27 09:00:04;;;;;;;6.32;2.80;;;21.50;99.90;;;;;;5023639;28;20036;-65
2023/03/27 09:02:47;;;;;;;4.95;2.95;;;21.50;99.90;;;;;;5025015;28;20037;-72
2023/03/27 09:05:17;;;;;;;6.22;3.30;;;21.50;99.90;;;;;;5019930;28;20121;-68
2023/03/27 09:08:04;;;;;;;6.40;2.80;;;21.60;99.90;;;;;;5021627;28;20041;-65
2023/03/27 09:10:38;;;;;;;4.38;3.00;;;21.60;99.90;;;;;;5025550;28;20058;-67
2023/03/27 09:13:30;;;;;;;4.70;2.50;;;21.60;99.90;;;;;;5023591;28;20159;-67
2023/03/27 09:16:29;;;;;;;4.32;2.60;;;21.60;99.90;;;;;;5022667;28;20037;-67
2023/03/27 09:19:19;;;;;;;4.63;2.70;;;21.50;99.90;;;;;;5017266;28;20453;-70
2023/03/27 09:22:01;;;;;;;6.22;3.17;;;21.50;99.90;;;;;;5015732;28;20039;-69
2023/03/27 09:24:38;;;;;;;4.93;2.78;;;21.60;99.90;;;;;;5018191;28;20512;-72
2023/03/27 09:27:18;;;;;;;5.72;2.90;;;21.50;99.90;;;;;;5023722;28;20091;-75
2023/03/27 09:29:58;;;;;;;4.13;2.72;;;21.50;99.90;;;;;;5024094;28;20029;-67
2023/03/27 09:32:26;;;;;;;4.10;2.47;;;21.40;99.90;;;;;;5018911;28;20104;-69
2023/03/27 09:34:54;;;;;;;5.10;2.45;;;21.30;99.90;;;;;;5022333;28;20026;-70
2023/03/27 09:37:21;;;;;;;5.88;2.58;;;21.30;99.90;;;;;;5020361;28;20712;-69
2023/03/27 09:39:53;;;;;;;5.57;2.78;;;21.20;99.90;;;;;;5022055;28;20017;-66
2023/03/27 09:42:36;;;;;;;3.88;2.50;;;21.20;99.90;;;;;;5017024;28;20021;-66
2023/03/27 09:45:07;;;;;;;6.90;3.20;;;21.20;99.90;;;;;;5021550;28;20026;-65
2023/03/27 09:47:57;;;;;;;4.63;2.35;;;21.20;99.90;;;;;;5026598;28;20029;-66
2023/03/27 09:50:43;;;;;;;5.47;2.75;;;21.10;99.90;;;;;;5024615;28;20194;-65
2023/03/27 09:53:12;;;;;;;3.97;2.47;;;21.10;99.90;;;;;;5028930;28;20029;-66
2023/03/27 09:55:55;;;;;;;3.95;2.58;;;21.00;99.90;;;;;;5030273;28;20060;-70
2023/03/27 09:58:28;;;;;;;4.35;2.35;;;21.00;99.90;;;;;;5034768;28;20022;-72
2023/03/27 10:01:36;;;;;;;3.85;2.60;;;20.90;99.90;;;;;;5028225;28;20032;-71
2023/03/27 10:04:16;;;;;;;3.35;2.53;;;20.90;99.90;;;;;;5027491;28;20124;-72
2023/03/27 10:06:58;;;;;;;4.78;2.55;;;20.80;99.90;;;;;;5020836;28;20371;-73
2023/03/27 10:09:28;;;;;;;8.13;3.08;;;20.80;99.90;;;;;;5039938;28;20605;-71
2023/03/27 10:12:07;;;;;;;4.68;3.30;;;20.80;99.90;;;;;;5027344;28;20033;-72
2023/03/27 10:14:43;;;;;;;4.80;2.60;;;20.70;99.90;;;;;;5039018;28;20104;-72
2023/03/27 10:17:39;;;;;;;4.32;2.60;;;20.60;99.90;;;;;;5025884;28;20059;-74
2023/03/27 10:20:17;;;;;;;5.68;2.78;;;20.60;99.90;;;;;;5034804;28;20441;-70
2023/03/27 10:22:58;;;;;;;3.83;2.83;;;20.60;99.90;;;;;;5027790;28;20027;-73
2023/03/27 10:25:38;;;;;;;4.07;2.42;;;20.60;99.90;;;;;;5020680;28;20026;-67
2023/03/27 10:28:15;;;;;;;5.20;2.55;;;20.50;99.90;;;;;;5007106;28;20029;-68
2023/03/27 10:30:43;;;;;;;6.30;3.53;;;20.40;99.90;;;;;;5027110;28;20026;-68
2023/03/27 10:33:10;;;;;;;5.13;2.45;;;20.30;99.90;;;;;;5029217;28;20049;-68
2023/03/27 10:35:45;;;;;;;3.95;2.35;;;20.20;99.90;;;;;;5029941;28;20033;-66
2023/03/27 10:38:22;;;;;;;6.25;2.65;;;20.20;99.90;;;;;;5028118;28;20029;-68
2023/03/27 10:40:51;;;;;;;4.95;3.08;;;20.20;99.90;;;;;;5029535;28;20025;-72
2023/03/27 10:43:39;;;;;;;5.45;2.83;;;20.20;99.90;;;;;;5039398;28;20444;-67
2023/03/27 10:46:28;;;;;;;6.72;2.92;;;20.20;99.90;;;;;;5025794;28;20196;-72
2023/03/27 10:49:00;;;;;;;4.35;3.47;;;20.20;99.90;;;;;;5022600;28;20083;-73
2023/03/27 10:51:28;;;;;;;5.43;3.60;;;20.30;99.90;;;;;;5023104;28;20025;-70
2023/03/27 10:54:01;;;;;;;6.57;3.45;;;20.30;99.90;;;;;;5024821;28;20017;-66
2023/03/27 10:56:44;;;;;;;8.70;3.40;;;20.30;99.90;;;;;;5022439;28;20034;-67
2023/03/27 10:59:47;;;;;;;6.18;3.30;;;20.30;99.90;;;;;;5025340;28;20026;-67
2023/03/27 11:02:44;;;;;;;6.13;3.75;;;20.40;99.90;;;;;;4987650;28;20034;-68
2023/03/27 11:05:37;;;;;;;5.38;3.38;;;20.50;99.90;;;;;;4995768;28;20037;-68
2023/03/27 11:08:18;;;;;;;5.82;3.38;;;20.60;99.90;;;;;;5022724;28;20128;-68
2023/03/27 11:10:49;;;;;;;7.10;3.10;;;20.50;99.90;;;;;;5017986;28;20040;-68
2023/03/27 11:13:32;;;;;;;4.43;3.28;;;20.50;99.90;;;;;;5028647;28;20462;-68
2023/03/27 11:16:10;;;;;;;5.28;3.40;;;20.50;99.90;;;;;;5024704;28;20112;-68
2023/03/27 11:18:44;;;;;;;6.30;3.75;;;20.50;99.90;;;;;;5031689;28;20031;-68
2023/03/27 11:21:21;;;;;;;7.35;3.58;;;20.60;99.90;;;;;;5026028;28;20033;-68
2023/03/27 11:23:56;;;;;;;12.25;3.83;;;20.60;99.90;;;;;;5025480;28;20026;-68
2023/03/27 11:26:56;;;;;;;6.07;3.53;;;20.60;99.90;;;;;;5029824;28;20440;-68
2023/03/27 11:29:30;;;;;;;6.30;4.32;;;20.70;99.90;;;;;;5016877;28;20124;-68
2023/03/27 11:32:12;;;;;;;9.23;5.90;;;20.70;99.90;;;;;;5028799;28;20028;-68
2023/03/27 11:34:53;;;;;;;7.63;4.85;;;20.80;99.90;;;;;;5028629;28;20098;-68
2023/03/27 11:37:32;;;;;;;7.85;4.45;;;20.80;99.90;;;;;;5012878;28;20413;-68
2023/03/27 11:40:33;;;;;;;8.85;4.72;;;20.80;99.90;;;;;;5028802;28;20108;-68
2023/03/27 11:43:01;;;;;;;8.77;4.93;;;20.80;99.90;;;;;;5024890;28;20022;-69
2023/03/27 11:45:36;;;;;;;8.07;4.38;;;20.90;99.90;;;;;;4999790;28;20466;-68
2023/03/27 11:48:18;;;;;;;8.85;4.90;;;20.90;99.90;;;;;;5022395;28;20123;-68
2023/03/27 11:50:55;;;;;;;10.20;5.05;;;20.90;99.90;;;;;;5019607;28;20549;-68
2023/03/27 11:53:38;;;;;;;8.98;4.75;;;20.90;99.90;;;;;;5020053;28;20034;-69
2023/03/27 11:56:17;;;;;;;8.40;4.38;;;20.80;99.90;;;;;;5000431;28;20045;-68
2023/03/27 11:59:27;;;;;;;13.05;4.75;;;20.80;99.90;;;;;;5005508;28;20033;-69
2023/03/27 12:02:00;;;;;;;14.20;6.93;;;20.80;99.90;;;;;;5002079;28;20072;-67
2023/03/27 12:04:37;;;;;;;14.07;6.50;;;20.70;99.90;;;;;;5002290;28;20116;-66
2023/03/27 12:07:28;;;;;;;18.80;8.10;;;20.60;99.90;;;;;;5019005;28;20053;-67
2023/03/27 12:10:26;;;;;;;18.17;8.25;;;20.50;99.90;;;;;;5018365;28;20042;-68
2023/03/27 12:13:33;;;;;;;18.52;8.57;;;20.50;99.90;;;;;;5016517;28;20072;-69
2023/03/27 12:16:16;;;;;;;17.17;7.50;;;20.40;99.90;;;;;;5023515;28;20403;-68
2023/03/27 12:19:01;;;;;;;15.88;6.45;;;20.40;99.90;;;;;;5023700;28;20037;-68
2023/03/27 12:21:50;;;;;;;12.05;5.28;;;20.40;99.90;;;;;;5019210;28;20471;-68
2023/03/27 12:24:33;;;;;;;7.35;4.85;;;20.40;99.90;;;;;;5023601;28;20018;-68
2023/03/27 12:27:26;;;;;;;8.57;5.25;;;20.40;99.90;;;;;;5025664;28;20021;-68
2023/03/27 12:30:01;;;;;;;7.97;3.75;;;20.40;99.90;;;;;;5027608;28;20039;-68
2023/03/27 12:32:34;;;;;;;9.52;4.80;;;20.40;99.90;;;;;;5027111;28;20028;-68
2023/03/27 12:35:14;;;;;;;7.13;3.55;;;20.30;99.90;;;;;;5016054;28;20034;-68
2023/03/27 12:38:02;;;;;;;5.30;3.78;;;20.30;99.90;;;;;;5008379;28;20052;-68
2023/03/27 12:40:39;;;;;;;11.25;4.50;;;20.30;99.90;;;;;;5021855;28;20029;-68
2023/03/27 12:43:21;;;;;;;7.47;4.72;;;20.20;99.90;;;;;;5030786;28;20030;-68
2023/03/27 12:46:11;;;;;;;9.88;6.47;;;20.30;99.90;;;;;;5010866;28;20041;-68
2023/03/27 12:48:51;;;;;;;10.02;5.63;;;20.40;99.90;;;;;;5032256;28;20066;-68
2023/03/27 12:51:19;;;;;;;9.50;5.50;;;20.40;99.90;;;;;;5026402;28;20032;-68
2023/03/27 12:53:50;;;;;;;6.70;5.13;;;20.40;99.90;;;;;;5002034;28;20026;-68
2023/03/27 12:56:23;;;;;;;8.00;5.38;;;20.30;99.90;;;;;;5033013;28;20033;-68
2023/03/27 12:58:53;;;;;;;11.93;5.75;;;20.20;99.90;;;;;;5027040;28;20051;-68
2023/03/27 13:01:29;;;;;;;10.13;5.70;;;20.20;99.90;;;;;;5013017;28;20028;-68
2023/03/27 13:04:09;;;;;;;9.48;5.70;;;20.10;99.90;;;;;;5013054;28;20045;-68
2023/03/27 13:07:21;;;;;;;9.77;5.90;;;20.00;99.90;;;;;;5008440;28;20030;-67
2023/03/27 13:09:59;;;;;;;11.23;6.55;;;19.90;99.90;;;;;;4989137;28;20045;-68
2023/03/27 13:12:48;;;;;;;10.98;6.40;;;19.90;99.90;;;;;;5000859;28;20030;-68
2023/03/27 13:15:30;;;;;;;11.57;6.22;;;19.90;99.90;;;;;;4988349;28;20529;-68
2023/03/27 13:18:24;;;;;;;14.15;7.47;;;19.80;99.90;;;;;;4992229;28;20470;-68
2023/03/27 13:21:09;;;;;;;11.98;7.00;;;19.80;99.90;;;;;;5004845;28;20036;-68
2023/03/27 13:23:49;;;;;;;16.15;8.00;;;19.80;99.90;;;;;;5001571;28;20022;-68
2023/03/27 13:26:32;;;;;;;12.35;7.28;;;19.70;99.90;;;;;;5012693;28;20461;-68
2023/03/27 13:29:00;;;;;;;13.57;7.55;;;19.70;99.90;;;;;;5012668;28;20048;-69